createdAt,value
2022-10-25T00:01:28.594Z,9.43
2022-10-25T00:03:57.375Z,8.60
2022-10-25T00:06:25.502Z,6.03
2022-10-25T00:08:53.459Z,9.18
2022-10-25T00:11:23.675Z,10.00
2022-10-25T00:13:54.166Z,9.32
2022-10-25T00:16:23.983Z,10.70
2022-10-25T00:18:52.710Z,10.38
2022-10-25T00:21:21.191Z,12.07
2022-10-25T00:23:49.079Z,9.52
2022-10-25T00:26:16.947Z,7.93
2022-10-25T00:28:45.033Z,8.43
2022-10-25T00:31:16.393Z,9.00
2022-10-25T00:33:45.664Z,7.93
2022-10-25T00:36:15.072Z,10.85
2022-10-25T00:38:44.105Z,10.63
2022-10-25T00:41:12.652Z,10.00
2022-10-25T00:43:42.347Z,9.77
2022-10-25T00:46:20.360Z,7.35
2022-10-25T00:48:54.638Z,15.15
2022-10-25T00:51:25.060Z,8.13
2022-10-25T00:53:53.369Z,11.83
2022-10-25T00:56:26.016Z,10.27
2022-10-25T00:58:57.073Z,10.60
2022-10-25T01:01:27.196Z,8.45
2022-10-25T01:03:57.657Z,7.47
2022-10-25T01:06:32.562Z,6.55
2022-10-25T01:09:02.586Z,7.97
2022-10-25T01:11:30.514Z,7.33
2022-10-25T01:13:59.024Z,10.05
2022-10-25T01:16:35.608Z,10.35
2022-10-25T01:19:21.988Z,10.98
2022-10-25T01:21:52.411Z,10.63
2022-10-25T01:24:49.530Z,8.77
2022-10-25T01:27:37.998Z,6.73
2022-10-25T01:30:13.754Z,7.40
2022-10-25T01:33:03.087Z,10.60
2022-10-25T01:35:33.404Z,11.30
2022-10-25T01:38:12.478Z,5.90
2022-10-25T01:40:49.277Z,7.37
2022-10-25T01:43:28.996Z,14.33
2022-10-25T01:46:03.255Z,9.33
2022-10-25T01:48:37.001Z,15.17
2022-10-25T01:51:12.271Z,23.13
2022-10-25T01:53:48.479Z,30.03
2022-10-25T01:56:23.263Z,37.13
2022-10-25T01:59:11.131Z,50.33
2022-10-25T02:01:52.182Z,46.00
2022-10-25T02:04:33.555Z,37.67
2022-10-25T02:07:07.897Z,41.37
2022-10-25T02:09:43.528Z,32.80
2022-10-25T02:12:17.176Z,26.63
2022-10-25T02:14:53.273Z,11.27
2022-10-25T02:17:24.640Z,12.47
2022-10-25T02:19:58.416Z,13.13
2022-10-25T02:22:30.086Z,12.83
2022-10-25T02:24:59.302Z,15.83
2022-10-25T02:27:29.385Z,13.93
2022-10-25T02:29:58.279Z,12.03
2022-10-25T02:32:26.721Z,11.63
2022-10-25T02:34:56.175Z,10.27
2022-10-25T02:37:24.287Z,13.03
2022-10-25T02:39:52.802Z,11.97
2022-10-25T02:42:20.691Z,7.60
2022-10-25T02:44:48.732Z,10.10
2022-10-25T02:47:16.719Z,10.80
2022-10-25T02:49:44.765Z,8.87
2022-10-25T02:52:14.197Z,10.20
2022-10-25T02:54:42.226Z,9.13
2022-10-25T02:57:10.358Z,10.17
2022-10-25T02:59:38.368Z,7.87
2022-10-25T03:02:06.441Z,7.80
2022-10-25T03:04:34.403Z,8.37
2022-10-25T03:07:02.335Z,7.87
2022-10-25T03:09:31.642Z,6.53
2022-10-25T03:11:59.539Z,9.07
2022-10-25T03:14:27.397Z,9.27
2022-10-25T03:16:55.294Z,8.30
2022-10-25T03:19:23.190Z,10.93
2022-10-25T03:21:51.202Z,7.77
2022-10-25T03:24:20.036Z,7.07
2022-10-25T03:26:49.539Z,9.13
2022-10-25T03:29:17.602Z,6.93
2022-10-25T03:31:45.607Z,6.43
2022-10-25T03:34:13.693Z,9.97
2022-10-25T03:36:41.914Z,6.67
2022-10-25T03:39:09.909Z,9.63
2022-10-25T03:41:37.819Z,7.60
2022-10-25T03:44:07.258Z,9.93
2022-10-25T03:46:35.162Z,11.27
2022-10-25T03:49:03.199Z,10.23
2022-10-25T03:51:31.293Z,8.27
2022-10-25T03:53:59.332Z,7.37
2022-10-25T03:56:27.486Z,7.10
2022-10-25T03:58:55.525Z,6.07
2022-10-25T04:01:26.072Z,7.37
2022-10-25T04:03:54.098Z,7.37
2022-10-25T04:06:22.508Z,7.07
2022-10-25T04:08:50.916Z,10.03
2022-10-25T04:11:18.953Z,6.37
2022-10-25T04:13:47.723Z,9.17
2022-10-25T04:16:22.246Z,8.13
2022-10-25T04:18:55.353Z,7.87
2022-10-25T04:21:23.611Z,17.40
2022-10-25T04:23:52.699Z,7.40
2022-10-25T04:26:21.364Z,6.60
2022-10-25T04:28:52.261Z,7.77
2022-10-25T04:31:20.866Z,7.67
2022-10-25T04:33:50.699Z,6.37
2022-10-25T04:36:21.518Z,7.47
2022-10-25T04:38:50.772Z,7.03
2022-10-25T04:41:21.516Z,9.97
2022-10-25T04:43:52.451Z,7.53
2022-10-25T04:46:21.203Z,11.20
2022-10-25T04:48:49.905Z,7.93
2022-10-25T04:51:21.032Z,6.70
2022-10-25T04:53:49.405Z,10.20
2022-10-25T04:56:17.643Z,9.27
2022-10-25T04:58:46.147Z,9.83
2022-10-25T14:19:08.894Z,3.22
2022-10-25T14:30:51.118Z,6.93
2022-10-25T14:53:18.954Z,8.25
2022-10-25T15:19:46.657Z,13.27
2022-10-25T16:45:32.161Z,3.67
2022-10-25T16:57:20.449Z,2.53
2022-10-25T17:03:03.483Z,3.80
2022-10-25T17:08:29.631Z,4.30
2022-10-25T17:10:58.847Z,4.18
2022-10-25T17:13:45.835Z,5.40
2022-10-25T17:16:32.048Z,9.45
2022-10-25T17:19:00.508Z,6.15
2022-10-25T17:21:31.581Z,8.60
2022-10-25T17:24:14.782Z,6.75
2022-10-25T17:29:40.672Z,10.32
2022-10-25T17:32:11.306Z,5.57
2022-10-25T17:34:40.382Z,6.22
2022-10-25T17:40:05.878Z,6.43
2022-10-25T17:42:35.541Z,6.93
2022-10-25T17:45:18.286Z,14.52
2022-10-25T17:47:51.412Z,8.07
2022-10-25T17:50:23.249Z,6.72
2022-10-25T18:11:08.157Z,16.65
2022-10-25T18:13:42.703Z,9.00
2022-10-25T18:16:26.062Z,9.15
2022-10-25T18:19:07.411Z,8.48
2022-10-25T18:37:19.005Z,4.93
2022-10-25T19:08:11.477Z,3.13
2022-10-25T19:13:51.600Z,5.70
2022-10-25T19:16:35.629Z,4.72
2022-10-25T19:25:20.182Z,7.75
2022-10-25T19:34:03.424Z,2.80
2022-10-25T19:39:43.053Z,7.72
2022-10-25T19:59:44.686Z,5.97
2022-10-25T20:02:25.206Z,6.93
2022-10-25T20:07:52.919Z,6.20
2022-10-25T20:10:35.601Z,4.72
2022-10-25T20:16:44.317Z,5.95
2022-10-25T20:19:16.294Z,5.18
2022-10-25T20:21:52.930Z,5.68
2022-10-25T20:24:43.582Z,4.85
2022-10-25T20:57:08.027Z,3.88
2022-10-25T20:59:53.964Z,6.68
2022-10-25T21:02:44.622Z,5.88
2022-10-25T21:14:12.360Z,4.82
2022-10-25T21:17:05.454Z,4.15
2022-10-25T21:31:28.718Z,5.40
2022-10-25T21:45:01.349Z,4.30
2022-10-25T21:47:38.888Z,8.48
2022-10-25T21:59:16.293Z,4.20
2022-10-25T22:07:40.462Z,4.82
2022-10-25T22:10:09.000Z,9.07
2022-10-25T22:12:37.347Z,5.05
2022-10-25T22:15:06.032Z,5.65
2022-10-25T22:17:34.404Z,3.42
2022-10-25T22:20:04.167Z,7.97
2022-10-25T22:22:32.261Z,6.28
2022-10-25T22:25:00.315Z,4.82
2022-10-25T22:27:28.307Z,6.50
2022-10-25T22:29:56.472Z,4.28
2022-10-25T22:32:24.973Z,6.72
2022-10-25T22:34:53.154Z,7.20
2022-10-25T22:37:22.607Z,4.28
2022-10-25T22:39:50.586Z,4.00
2022-10-25T22:42:18.549Z,5.75
2022-10-25T22:44:46.595Z,4.57
2022-10-25T22:47:14.661Z,4.70
2022-10-25T22:49:42.709Z,3.55
2022-10-25T22:52:11.511Z,3.90
2022-10-25T22:54:40.902Z,2.85
2022-10-25T22:57:09.053Z,4.53
2022-10-25T22:59:37.070Z,4.55
2022-10-25T23:02:05.113Z,3.70
2022-10-25T23:04:33.506Z,6.65
2022-10-25T23:07:01.520Z,3.13
2022-10-25T23:09:29.667Z,3.53
2022-10-25T23:30:54.463Z,4.97
2022-10-25T23:33:22.365Z,3.63
2022-10-25T23:35:50.238Z,3.70
2022-10-25T23:38:18.109Z,2.80
2022-10-25T23:40:46.980Z,3.75
2022-10-25T23:43:14.820Z,4.57
2022-10-25T23:45:43.317Z,8.05
2022-10-25T23:48:12.599Z,3.63
2022-10-25T23:50:40.478Z,4.47
2022-10-25T23:53:08.618Z,6.05
2022-10-25T23:55:38.609Z,3.88
2022-10-25T23:58:06.648Z,3.13
